If you wish to contribute or participate in the discussions about articles you are invited to join SKYbrary as a registered user

 Actions

Arad International Airport

From SKYbrary Wiki

LRAR
Airport
ICAO: LRAR – IATA: ARW
Summary
Name Arad International Airport
Region
Territory Romania RO.gif
Location , Arad
Serving Arad
Elevation 107.29 m
352 ft
352 ft107.29 m
Type medium airport
Coordinates 46° 10' 35.58" N, 21° 15' 43.28" E
Runways
Designator Length Width Surface ROPS
9/27 2000 m6,561.68 ft
45 m147.638 ft
CON /


METAR
Observation LRAR 250300Z 36003KT 3300 1500SE R27/1700VP2000D BCFG NSC 18/18 Q1020
Station Arad
Date/Time 25 June 2019 03:00:00
Wind direction 360°
Wind speed 03 kts
Lowest cloud amount nil significant cloud
Temperature 18°C
Dew point 18°C
Humidity 100%
QNH 1020 hPa
Weather condition n/a